createdAt,value
2019-01-11T00:02:08.601Z,96408.29
2019-01-11T00:04:39.946Z,96397.85
2019-01-11T00:07:11.471Z,96399.12
2019-01-11T00:09:45.320Z,96403.17
2019-01-11T00:12:16.869Z,96404.17
2019-01-11T00:14:48.183Z,96419.41
2019-01-11T00:17:19.624Z,96413.29
2019-01-11T00:19:50.985Z,96422.17
2019-01-11T00:22:22.361Z,96436.77
2019-01-11T00:24:54.003Z,96434.50
2019-01-11T00:27:25.450Z,96427.66
2019-01-11T00:29:56.876Z,96425.17
2019-01-11T00:32:28.303Z,96423.63
2019-01-11T00:34:59.783Z,96420.88
2019-01-11T00:37:31.329Z,96415.20
2019-01-11T00:40:02.792Z,96404.60
2019-01-11T00:42:34.137Z,96390.84
2019-01-11T00:45:05.902Z,96378.32
2019-01-11T00:47:37.407Z,96362.06
2019-01-11T00:50:09.531Z,96369.36
2019-01-11T00:52:40.925Z,96385.16
2019-01-11T00:55:12.675Z,96382.70
2019-01-11T00:57:44.094Z,96388.91
2019-01-11T01:00:18.650Z,96399.58
2019-01-11T01:02:50.357Z,96391.81
2019-01-11T01:05:22.152Z,96405.16
2019-01-11T01:07:53.554Z,96422.06
2019-01-11T01:10:25.008Z,96414.03
2019-01-11T01:12:56.360Z,96413.09
2019-01-11T01:15:27.732Z,96414.76
2019-01-11T01:17:59.061Z,96400.15
2019-01-11T01:20:30.609Z,96401.71
2019-01-11T01:23:01.988Z,96406.17
2019-01-11T01:25:33.575Z,96411.92
2019-01-11T01:28:05.190Z,96414.13
2019-01-11T01:30:36.722Z,96435.84
2019-01-11T01:33:08.400Z,96447.80
2019-01-11T01:35:39.999Z,96434.26
2019-01-11T01:38:11.377Z,96428.27
2019-01-11T01:40:42.873Z,96429.13
2019-01-11T01:43:14.626Z,96424.36
2019-01-11T01:45:45.972Z,96434.28
2019-01-11T01:48:17.337Z,96448.62
2019-01-11T01:50:49.900Z,96451.43
2019-01-11T01:53:21.311Z,96461.41
2019-01-11T01:55:52.769Z,96466.25
2019-01-11T01:58:24.182Z,96457.70
2019-01-11T02:00:55.713Z,96464.32
2019-01-11T02:03:27.154Z,96483.53
2019-01-11T02:05:58.598Z,96490.19
2019-01-11T02:08:29.852Z,96492.18
2019-01-11T02:11:01.215Z,96497.88
2019-01-11T02:13:32.462Z,96505.72
2019-01-11T02:16:03.869Z,96496.84
2019-01-11T02:18:35.340Z,96491.69
2019-01-11T02:21:08.757Z,96508.71
2019-01-11T02:23:40.334Z,96513.34
2019-01-11T02:26:11.802Z,96523.48
2019-01-11T02:28:43.088Z,96524.91
2019-01-11T02:31:14.534Z,96511.31
2019-01-11T02:33:45.981Z,96509.80
2019-01-11T02:36:17.419Z,96503.25
2019-01-11T02:38:48.843Z,96508.89
2019-01-11T02:41:20.136Z,96503.33
2019-01-11T02:43:51.606Z,96507.30
2019-01-11T02:46:23.032Z,96505.16
2019-01-11T02:48:54.530Z,96500.52
2019-01-11T02:51:25.880Z,96485.70
2019-01-11T02:53:57.468Z,96492.01
2019-01-11T02:56:28.951Z,96498.53
2019-01-11T02:59:00.329Z,96503.61
2019-01-11T03:01:31.711Z,96518.08
2019-01-11T03:04:03.264Z,96506.91
2019-01-11T03:06:34.730Z,96511.52
2019-01-11T03:09:08.350Z,96509.25
2019-01-11T03:11:39.779Z,96502.61
2019-01-11T03:14:11.197Z,96496.38
2019-01-11T03:16:42.779Z,96514.17
2019-01-11T03:19:14.270Z,96501.58
2019-01-11T03:21:45.801Z,96505.55
2019-01-11T03:24:17.381Z,96513.11
2019-01-11T03:26:48.910Z,96524.83
2019-01-11T03:29:20.383Z,96532.93
2019-01-11T03:31:51.904Z,96527.59
2019-01-11T03:34:23.467Z,96533.08
2019-01-11T03:36:54.854Z,96534.18
2019-01-11T03:39:26.296Z,96534.22
2019-01-11T03:42:11.115Z,96530.16
2019-01-11T03:44:43.709Z,96541.09
2019-01-11T03:47:15.204Z,96564.16
2019-01-11T03:49:46.562Z,96572.05
2019-01-11T03:52:17.893Z,96573.88
2019-01-11T03:54:49.291Z,96577.33
2019-01-11T03:57:20.630Z,96581.19
2019-01-11T03:59:52.045Z,96578.45
2019-01-11T04:02:23.445Z,96585.05
2019-01-11T04:04:54.949Z,96589.59
2019-01-11T04:07:26.522Z,96594.93
2019-01-11T04:09:58.000Z,96604.63
2019-01-11T04:12:29.530Z,96611.89
2019-01-11T04:15:02.208Z,96624.09
2019-01-11T04:17:33.701Z,96624.45
2019-01-11T04:20:06.111Z,96626.70
2019-01-11T04:22:42.148Z,96615.13
2019-01-11T04:25:25.347Z,96615.05
2019-01-11T04:27:56.905Z,96623.63
2019-01-11T04:30:28.440Z,96616.08
2019-01-11T04:32:59.938Z,96622.82
2019-01-11T04:35:31.372Z,96630.45
2019-01-11T04:38:02.836Z,96636.80
2019-01-11T04:40:34.586Z,96640.11
2019-01-11T04:43:06.140Z,96648.67
2019-01-11T04:45:37.798Z,96642.31
2019-01-11T04:48:09.332Z,96641.55
2019-01-11T04:50:40.933Z,96651.07
2019-01-11T04:53:12.552Z,96638.11
2019-01-11T04:55:44.019Z,96642.80
2019-01-11T04:58:15.500Z,96655.31
2019-01-11T05:00:46.937Z,96666.50
2019-01-11T05:03:18.417Z,96664.72
2019-01-11T05:05:50.028Z,96677.68
2019-01-11T05:08:21.680Z,96687.84
2019-01-11T05:10:53.271Z,96681.89
2019-01-11T05:13:45.164Z,96690.72
2019-01-11T05:16:16.756Z,96690.02
2019-01-11T05:18:50.376Z,96686.58
2019-01-11T05:21:21.881Z,96680.11
2019-01-11T05:23:53.426Z,96678.15
2019-01-11T05:26:24.910Z,96681.38
2019-01-11T05:28:56.414Z,96686.20
2019-01-11T05:31:29.075Z,96691.97
2019-01-11T05:34:00.579Z,96699.77
2019-01-11T05:36:32.023Z,96715.45
2019-01-11T05:39:04.768Z,96718.23
2019-01-11T05:41:36.136Z,96730.84
2019-01-11T05:44:07.547Z,96731.94
2019-01-11T05:46:38.902Z,96744.44
2019-01-11T05:49:11.094Z,96745.75
2019-01-11T05:51:42.772Z,96734.62
2019-01-11T05:54:14.187Z,96751.12
2019-01-11T05:56:45.783Z,96749.96
2019-01-11T05:59:17.169Z,96741.57
2019-01-11T06:01:48.718Z,96753.63
2019-01-11T06:04:52.852Z,96738.33
2019-01-11T06:07:38.939Z,96738.93
2019-01-11T06:10:12.907Z,96746.52
2019-01-11T06:12:44.516Z,96739.00
2019-01-11T06:15:16.695Z,96748.48
2019-01-11T06:17:48.839Z,96736.46
2019-01-11T06:20:20.561Z,96741.77
2019-01-11T06:22:52.228Z,96758.98
2019-01-11T06:25:23.947Z,96746.78
2019-01-11T06:27:55.726Z,96739.56
2019-01-11T06:30:27.340Z,96732.05
2019-01-11T06:32:58.847Z,96763.78
2019-01-11T06:35:31.458Z,96770.40
2019-01-11T06:38:03.023Z,96794.36
2019-01-11T06:40:34.604Z,96807.92
2019-01-11T06:43:06.146Z,96812.36
2019-01-11T06:45:37.712Z,96812.69
2019-01-11T06:48:17.537Z,96822.35
2019-01-11T06:50:48.861Z,96816.21
2019-01-11T06:53:20.401Z,96830.11
2019-01-11T06:55:51.802Z,96837.86
2019-01-11T06:58:23.402Z,96840.62
2019-01-11T07:00:56.019Z,96838.08
2019-01-11T07:03:27.558Z,96855.11
2019-01-11T07:05:59.069Z,96861.43
2019-01-11T07:08:30.642Z,96859.05
2019-01-11T07:11:02.229Z,96859.05
2019-01-11T07:13:33.753Z,96866.20
2019-01-11T07:16:05.204Z,96876.53
2019-01-11T07:18:36.648Z,96884.83
2019-01-11T07:21:07.977Z,96894.70
2019-01-11T07:23:39.725Z,96901.02
2019-01-11T07:26:11.155Z,96901.45
2019-01-11T07:28:42.622Z,96901.16
2019-01-11T07:31:15.918Z,96908.31
2019-01-11T12:38:55.494Z,97093.56
2019-01-11T12:41:27.474Z,97093.69
2019-01-11T12:43:59.361Z,97083.12
2019-01-11T12:46:31.009Z,97077.47
2019-01-11T12:49:02.887Z,97083.39
2019-01-11T12:51:34.615Z,97077.47
2019-01-11T12:54:06.526Z,97092.52
2019-01-11T12:56:38.165Z,97088.80
2019-01-11T12:59:09.934Z,97096.98
2019-01-11T13:01:41.538Z,97095.55
2019-01-11T13:04:13.384Z,97105.66
2019-01-11T13:06:46.944Z,97112.92
2019-01-11T13:09:18.668Z,97098.44
2019-01-11T13:11:50.289Z,97109.61
2019-01-11T13:14:21.864Z,97106.66
2019-01-11T13:16:53.673Z,97111.87
2019-01-11T13:19:25.196Z,97114.19
2019-01-11T13:22:00.556Z,97114.78
2019-01-11T13:24:30.692Z,97122.56
2019-01-11T13:27:02.612Z,97114.01
2019-01-11T13:29:34.319Z,97115.19
2019-01-11T13:32:06.289Z,97120.30
2019-01-11T13:34:38.001Z,97126.63
2019-01-11T13:37:09.690Z,97128.34
2019-01-11T13:39:41.396Z,97129.48
2019-01-11T13:42:13.303Z,97137.48
2019-01-11T13:44:45.101Z,97136.12
2019-01-11T13:47:17.085Z,97143.83
2019-01-11T13:49:48.846Z,97136.64
2019-01-11T13:52:20.760Z,97140.17
2019-01-11T13:54:53.615Z,97142.66
2019-01-11T13:57:26.037Z,97139.80
2019-01-11T13:59:57.792Z,97141.56
2019-01-11T14:02:29.606Z,97147.22
2019-01-11T14:05:01.371Z,97140.24
2019-01-11T14:07:33.292Z,97149.39
2019-01-11T14:10:05.363Z,97148.56
2019-01-11T14:12:36.923Z,97156.13
2019-01-11T14:15:08.772Z,97145.37
2019-01-11T14:17:40.491Z,97153.23
2019-01-11T14:20:12.957Z,97162.70
2019-01-11T14:22:44.735Z,97161.98
2019-01-11T14:25:17.213Z,97172.73
2019-01-11T14:27:49.319Z,97181.48
2019-01-11T14:30:21.464Z,97184.58
2019-01-11T14:32:53.553Z,97183.89
2019-01-11T14:35:25.435Z,97191.22
2019-01-11T14:37:57.285Z,97184.50
2019-01-11T14:40:29.232Z,97184.38
2019-01-11T14:43:01.205Z,97189.26
2019-01-11T14:45:33.069Z,97184.64
2019-01-11T14:48:04.961Z,97191.22
2019-01-11T14:50:36.829Z,97188.39
2019-01-11T14:53:08.799Z,97193.27
2019-01-11T14:55:40.770Z,97197.08
2019-01-11T14:58:12.526Z,97203.92
2019-01-11T15:00:44.246Z,97193.46
2019-01-11T15:03:15.956Z,97201.22
2019-01-11T15:05:47.720Z,97211.03
2019-01-11T15:08:19.250Z,97221.66
2019-01-11T15:10:51.014Z,97223.94
2019-01-11T15:13:22.794Z,97222.28
2019-01-11T15:15:54.517Z,97227.25
2019-01-11T15:18:26.487Z,97233.91
2019-01-11T15:20:58.177Z,97230.28
2019-01-11T15:23:29.980Z,97236.63
2019-01-11T15:26:01.641Z,97231.17
2019-01-11T15:28:33.271Z,97238.55
2019-01-11T15:31:05.053Z,97229.02
2019-01-11T15:33:37.913Z,97230.69
2019-01-11T15:36:10.860Z,97238.39
2019-01-11T15:38:43.766Z,97233.36
2019-01-11T15:41:15.543Z,97239.12
2019-01-11T15:43:47.347Z,97232.23
2019-01-11T15:46:19.059Z,97239.75
2019-01-11T15:48:51.847Z,97245.38
2019-01-11T15:51:29.307Z,97245.78
2019-01-11T15:54:01.749Z,97249.36
2019-01-11T15:56:33.565Z,97252.86
2019-01-11T15:59:05.331Z,97254.08
2019-01-11T16:01:36.946Z,97252.13
2019-01-11T16:04:11.177Z,97256.73
2019-01-11T16:06:44.163Z,97265.63
2019-01-11T16:10:04.825Z,97264.67
2019-01-11T16:12:55.418Z,97265.73
2019-01-11T16:15:48.174Z,97280.52
2019-01-11T16:18:28.832Z,97277.65
2019-01-11T16:21:00.741Z,97286.86
2019-01-11T16:23:32.497Z,97277.16
2019-01-11T16:26:04.168Z,97284.31
2019-01-11T16:28:35.799Z,97289.70
2019-01-11T16:31:07.625Z,97286.43
2019-01-11T16:33:39.478Z,97288.66
2019-01-11T16:36:11.110Z,97287.02
2019-01-11T16:38:44.042Z,97288.41
2019-01-11T16:41:15.943Z,97292.11
2019-01-11T16:43:47.581Z,97291.02
2019-01-11T16:46:19.587Z,97299.04
2019-01-11T16:48:51.488Z,97301.58
2019-01-11T16:51:24.018Z,97305.27
2019-01-11T16:53:55.756Z,97298.62
2019-01-11T16:56:29.829Z,97305.45
2019-01-11T16:59:01.672Z,97306.30
2019-01-11T17:01:33.315Z,97309.80
2019-01-11T17:04:05.785Z,97310.17
2019-01-11T17:06:37.483Z,97311.34
2019-01-11T17:09:10.450Z,97319.39
2019-01-11T17:11:42.216Z,97320.66
2019-01-11T17:14:13.946Z,97322.83
2019-01-11T17:16:45.833Z,97320.23
2019-01-11T17:19:20.818Z,97329.22
2019-01-11T17:21:52.518Z,97327.33
2019-01-11T17:24:24.207Z,97330.66
2019-01-11T17:26:55.786Z,97326.87
2019-01-11T17:29:27.313Z,97336.59
2019-01-11T17:31:59.028Z,97328.91
2019-01-11T17:34:30.764Z,97328.92
2019-01-11T17:37:02.421Z,97329.77
2019-01-11T17:39:34.128Z,97328.91
2019-01-11T17:42:06.108Z,97335.41
2019-01-11T17:44:37.898Z,97337.86
2019-01-11T17:47:09.914Z,97340.93
2019-01-11T17:49:42.022Z,97341.34
2019-01-11T17:52:13.893Z,97344.30
2019-01-11T17:54:45.700Z,97334.78
2019-01-11T17:57:17.589Z,97331.83
2019-01-11T17:59:49.388Z,97332.73
2019-01-11T18:02:21.090Z,97339.13
2019-01-11T18:04:52.858Z,97333.42
2019-01-11T18:07:24.692Z,97344.73
2019-01-11T18:09:56.367Z,97342.61
2019-01-11T18:12:28.079Z,97351.55
2019-01-11T18:14:59.636Z,97346.10
2019-01-11T18:17:31.400Z,97347.95
2019-01-11T18:20:03.045Z,97353.30
2019-01-11T18:22:34.654Z,97359.37
2019-01-11T18:25:06.973Z,97359.26
2019-01-11T18:27:38.532Z,97360.80
2019-01-11T18:30:11.983Z,97364.70
2019-01-11T18:32:44.586Z,97367.81
2019-01-11T18:35:17.355Z,97369.83
2019-01-11T18:37:49.311Z,97366.08
2019-01-11T18:40:23.373Z,97368.05
2019-01-11T18:42:55.176Z,97373.69
2019-01-11T18:45:28.791Z,97381.88
2019-01-11T18:48:00.461Z,97386.48
2019-01-11T18:50:32.636Z,97388.22
2019-01-11T18:53:04.978Z,97386.95
2019-01-11T18:55:36.851Z,97387.96
2019-01-11T18:58:08.498Z,97387.70
2019-01-11T19:00:40.326Z,97386.05
2019-01-11T19:03:12.314Z,97391.83
2019-01-11T19:05:44.250Z,97387.66
2019-01-11T19:08:16.063Z,97386.58
2019-01-11T19:10:47.789Z,97388.73
2019-01-11T19:13:19.446Z,97390.97
2019-01-11T19:15:51.061Z,97387.30
2019-01-11T19:18:22.746Z,97380.64
2019-01-11T19:20:54.505Z,97382.07
2019-01-11T19:23:26.595Z,97383.61
2019-01-11T19:25:58.415Z,97391.22
2019-01-11T19:28:30.056Z,97391.16
2019-01-11T19:31:01.714Z,97394.36
2019-01-11T19:33:33.441Z,97389.39
2019-01-11T19:36:05.348Z,97390.61
2019-01-11T19:38:37.141Z,97396.95
2019-01-11T19:41:08.969Z,97394.87
2019-01-11T19:43:40.714Z,97396.71
2019-01-11T19:46:13.712Z,97394.61
2019-01-11T19:48:45.459Z,97393.44
2019-01-11T19:51:17.152Z,97390.90
2019-01-11T19:53:48.719Z,97393.91
2019-01-11T19:56:20.365Z,97397.28
2019-01-11T19:58:51.922Z,97390.57
2019-01-11T20:01:23.725Z,97396.48
2019-01-11T20:03:55.542Z,97394.89
2019-01-11T20:06:27.275Z,97397.05
2019-01-11T20:08:59.192Z,97390.62
2019-01-11T20:11:31.032Z,97392.11
2019-01-11T20:14:02.887Z,97389.91
2019-01-11T20:16:34.512Z,97388.83
2019-01-11T20:19:06.435Z,97382.88
2019-01-11T20:21:38.088Z,97387.05
2019-01-11T20:24:10.736Z,97386.16
2019-01-11T20:26:42.412Z,97388.83
2019-01-11T20:29:14.103Z,97380.71
2019-01-11T20:31:45.805Z,97371.56
2019-01-11T20:34:17.432Z,97377.98
2019-01-11T20:36:59.316Z,97366.03
2019-01-11T20:39:30.951Z,97362.23
2019-01-11T20:42:02.634Z,97358.47
2019-01-11T20:44:34.231Z,97357.25
2019-01-11T20:47:05.985Z,97355.61
2019-01-11T20:49:37.507Z,97359.26
2019-01-11T20:52:09.252Z,97358.89
2019-01-11T20:54:40.836Z,97361.55
2019-01-11T20:57:12.607Z,97361.42
2019-01-11T20:59:44.328Z,97355.36
2019-01-11T21:02:16.294Z,97362.12
2019-01-11T21:04:48.243Z,97368.91
2019-01-11T21:07:19.905Z,97355.45
2019-01-11T21:09:51.455Z,97358.31
2019-01-11T21:12:23.084Z,97356.95
2019-01-11T21:14:54.681Z,97349.41
2019-01-11T21:17:26.427Z,97346.45
2019-01-11T21:19:58.146Z,97342.61
2019-01-11T21:22:29.832Z,97340.83
2019-01-11T21:25:01.555Z,97337.08
2019-01-11T21:27:33.759Z,97340.36
2019-01-11T21:30:07.251Z,97333.36
2019-01-11T21:32:38.846Z,97334.55
2019-01-11T21:35:10.610Z,97333.70
2019-01-11T21:37:42.265Z,97324.13
2019-01-11T21:40:15.562Z,97318.02
2019-01-11T21:42:47.996Z,97308.70
2019-01-11T21:45:19.994Z,97310.09
2019-01-11T21:47:51.651Z,97306.77
2019-01-11T21:50:25.759Z,97300.05
2019-01-11T21:52:57.304Z,97295.80
2019-01-11T21:55:28.976Z,97301.41
2019-01-11T21:58:00.662Z,97307.32
2019-01-11T22:00:40.753Z,97316.31
2019-01-11T22:03:17.910Z,97329.39
2019-01-11T22:05:49.647Z,97333.52
2019-01-11T22:08:21.500Z,97347.73
2019-01-11T22:10:53.164Z,97341.49
2019-01-11T22:13:24.995Z,97335.20
2019-01-11T22:15:58.036Z,97325.16
2019-01-11T22:18:29.810Z,97325.97
2019-01-11T22:21:01.638Z,97316.18
2019-01-11T22:23:33.240Z,97312.51
2019-01-11T22:26:05.153Z,97314.66
2019-01-11T22:28:36.828Z,97318.50
2019-01-11T22:31:08.565Z,97313.40
2019-01-11T22:33:40.151Z,97313.86
2019-01-11T22:36:11.747Z,97308.38
2019-01-11T22:38:43.422Z,97298.25
2019-01-11T22:41:15.151Z,97305.42
2019-01-11T22:43:46.781Z,97301.67
2019-01-11T22:46:18.303Z,97295.72
2019-01-11T22:48:49.840Z,97300.83
2019-01-11T22:51:21.348Z,97290.70
2019-01-11T22:53:52.927Z,97295.85
2019-01-11T22:56:24.455Z,97291.17
2019-01-11T22:58:56.048Z,97291.17
2019-01-11T23:01:42.930Z,97287.37
2019-01-11T23:04:14.462Z,97278.09
2019-01-11T23:07:23.551Z,97280.24
2019-01-11T23:10:44.431Z,97282.06
2019-01-11T23:13:19.353Z,97290.36
2019-01-11T23:15:54.678Z,97291.09
2019-01-11T23:18:28.140Z,97297.03
2019-01-11T23:21:05.343Z,97292.34
2019-01-11T23:23:36.945Z,97291.09
2019-01-11T23:26:08.648Z,97289.91
2019-01-11T23:28:40.318Z,97294.50
2019-01-11T23:31:12.020Z,97286.66
2019-01-11T23:33:43.572Z,97288.77
2019-01-11T23:36:15.240Z,97288.31
2019-01-11T23:38:47.224Z,97304.38
2019-01-11T23:41:18.998Z,97301.42
2019-01-11T23:43:50.652Z,97304.76
2019-01-11T23:46:22.509Z,97313.48
2019-01-11T23:48:54.429Z,97313.15
2019-01-11T23:51:26.087Z,97312.22
2019-01-11T23:53:58.854Z,97318.16
2019-01-11T23:56:30.567Z,97321.55
2019-01-11T23:59:02.405Z,97328.33
